Asharoken, New York
Current Conditions -  °F | °C
As of 6:53 AM on Wednesday 28 Jan 2015 (Local Time) from KFRG Reporting Station
Few Clouds Few Clouds  
Wind Chill:   Ceiling: Unl
Heat Index: 18°   Visibility: 10mi
Dew Point:   Wind: 8mph
Humidity: 52%   Direction: 330°NNW
Pressure: 29.96"   Gusts: NA
Location:  40.9096°N, 73.3231°W
Report Text: KFRG 281153Z 33007KT 10SM FEW100 M08/M16 A2996 RMK AO2 SLP145 70001 T10781161 11078 21089 53022 $
Loading
Personal Weather Stations






























Interactive Weather Map New forecast layout! Learn more

10-Day Weather Forecast

Advertisements
Track Severe Weather on mobile